Time;durP1;ratioP1;P1;durP2;ratioP2;P2;SDS_P1;SDS_P2;PMS_P1;PMS_P2;Temp;Humidity;BMP_temperature;BMP_pressure;BME280_temperature;BME280_humidity;BME280_pressure;Samples;Min_cycle;Max_cycle;Signal;HPM_P1;HPM_P2
2023/04/26 00:00:35;;;;;;;3.83;2.17;;;12.90;93.50;;;;;;4872472;29;20315;-80
2023/04/26 00:03:03;;;;;;;3.33;2.27;;;12.90;93.60;;;;;;4861940;29;20212;-81
2023/04/26 00:05:33;;;;;;;2.83;2.50;;;12.90;93.60;;;;;;4863792;29;20205;-80
2023/04/26 00:08:04;;;;;;;2.60;1.97;;;12.90;93.70;;;;;;4861668;29;20284;-83
2023/04/26 00:10:32;;;;;;;2.37;2.00;;;12.80;93.80;;;;;;4861868;29;20205;-82
2023/04/26 00:13:00;;;;;;;2.00;1.60;;;12.70;93.90;;;;;;4867803;29;20951;-82
2023/04/26 00:15:29;;;;;;;3.63;1.87;;;12.70;94.00;;;;;;4874836;29;20201;-82
2023/04/26 00:17:57;;;;;;;3.40;1.83;;;12.70;94.00;;;;;;4870503;29;20194;-82
2023/04/26 00:20:26;;;;;;;3.20;1.73;;;12.70;94.00;;;;;;4870688;29;20200;-85
2023/04/26 00:22:54;;;;;;;4.13;1.80;;;12.70;94.00;;;;;;4870275;29;20197;-84
2023/04/26 00:25:24;;;;;;;3.60;1.57;;;12.60;94.00;;;;;;4868237;29;20260;-81
2023/04/26 00:27:52;;;;;;;2.17;1.67;;;12.60;94.20;;;;;;4873003;29;20197;-81
2023/04/26 00:30:21;;;;;;;4.37;2.93;;;12.60;94.20;;;;;;4873022;29;20204;-81
2023/04/26 00:32:50;;;;;;;1.60;1.43;;;12.50;94.30;;;;;;4867962;29;20197;-82
2023/04/26 00:35:18;;;;;;;2.57;2.07;;;12.50;94.40;;;;;;4868521;29;20276;-82
2023/04/26 00:37:47;;;;;;;2.23;1.57;;;12.50;94.30;;;;;;4877462;29;20598;-79
2023/04/26 00:40:16;;;;;;;2.03;1.47;;;12.50;94.30;;;;;;4874707;29;21262;-82
2023/04/26 00:42:46;;;;;;;2.77;1.87;;;12.40;94.40;;;;;;4880784;29;20224;-82
2023/04/26 00:45:14;;;;;;;3.00;2.00;;;12.40;94.30;;;;;;4869202;29;20209;-82
2023/04/26 00:47:43;;;;;;;2.60;1.80;;;12.30;94.50;;;;;;4872132;29;20197;-82
2023/04/26 00:50:11;;;;;;;2.50;1.53;;;12.40;94.50;;;;;;4875556;29;20749;-81
2023/04/26 00:52:40;;;;;;;3.83;1.70;;;12.30;94.60;;;;;;4878715;29;20264;-86
2023/04/26 00:55:09;;;;;;;5.90;2.33;;;12.20;94.70;;;;;;4869062;29;20208;-83
2023/04/26 00:57:39;;;;;;;2.83;1.90;;;12.30;94.80;;;;;;4871148;29;20625;-82
2023/04/26 01:00:10;;;;;;;2.53;2.07;;;12.30;94.80;;;;;;4868386;29;20269;-82
2023/04/26 01:02:39;;;;;;;3.10;2.00;;;12.30;94.70;;;;;;4873829;29;20309;-81
2023/04/26 01:05:08;;;;;;;2.70;1.83;;;12.30;94.80;;;;;;4875424;29;20217;-80
2023/04/26 01:07:37;;;;;;;3.40;2.20;;;12.30;94.90;;;;;;4871503;29;20201;-81
2023/04/26 01:10:08;;;;;;;2.03;1.67;;;12.20;94.90;;;;;;4873057;29;20666;-81
2023/04/26 01:12:38;;;;;;;4.23;2.30;;;12.20;94.90;;;;;;4871670;29;20212;-80
2023/04/26 01:15:09;;;;;;;3.43;1.73;;;12.30;94.80;;;;;;4871813;29;20201;-80
2023/04/26 01:17:38;;;;;;;3.87;3.00;;;12.30;94.80;;;;;;4878563;29;20252;-82
2023/04/26 01:20:09;;;;;;;4.13;2.20;;;12.30;94.70;;;;;;4872840;29;20217;-82
2023/04/26 01:22:39;;;;;;;2.17;1.50;;;12.20;94.80;;;;;;4869789;29;20419;-80
2023/04/26 01:25:11;;;;;;;2.03;1.73;;;12.20;94.80;;;;;;4870361;29;20197;-82
2023/04/26 01:27:40;;;;;;;4.40;3.37;;;12.10;94.90;;;;;;4874287;29;20208;-83
2023/04/26 01:30:10;;;;;;;2.47;1.53;;;12.10;94.90;;;;;;4871235;29;20208;-84
2023/04/26 01:32:38;;;;;;;2.87;1.67;;;12.10;94.80;;;;;;4869647;29;20272;-81
2023/04/26 01:35:07;;;;;;;2.53;1.27;;;12.10;94.80;;;;;;4874172;29;20209;-80
2023/04/26 01:37:35;;;;;;;3.00;2.53;;;12.20;94.80;;;;;;4870352;29;20205;-81
2023/04/26 01:40:07;;;;;;;2.97;2.40;;;12.10;94.80;;;;;;4872390;29;20245;-83
2023/04/26 01:42:35;;;;;;;3.87;1.90;;;12.20;94.80;;;;;;4871651;29;20229;-82
2023/04/26 01:45:04;;;;;;;3.93;2.07;;;12.20;94.70;;;;;;4864270;29;20584;-83
2023/04/26 01:47:32;;;;;;;4.93;1.50;;;12.20;94.70;;;;;;4870853;29;20645;-83
2023/04/26 01:50:01;;;;;;;3.67;2.17;;;12.20;94.70;;;;;;4879531;29;20296;-81
2023/04/26 01:52:29;;;;;;;4.97;2.07;;;12.20;94.70;;;;;;4876226;29;20202;-82
2023/04/26 01:54:57;;;;;;;3.37;2.20;;;12.20;94.70;;;;;;4869770;29;20216;-80
2023/04/26 01:57:27;;;;;;;1.57;1.13;;;12.10;94.80;;;;;;4880128;29;20659;-82
2023/04/26 01:59:56;;;;;;;3.10;2.13;;;12.10;94.70;;;;;;4873415;29;20660;-81
2023/04/26 02:02:24;;;;;;;2.30;1.70;;;12.10;94.70;;;;;;4873398;29;20347;-83
2023/04/26 02:04:52;;;;;;;2.60;1.57;;;12.10;94.70;;;;;;4873962;29;20241;-81
2023/04/26 02:07:21;;;;;;;3.23;1.93;;;12.10;94.70;;;;;;4870466;29;20216;-84
2023/04/26 02:09:50;;;;;;;2.27;1.57;;;12.10;94.70;;;;;;4871306;29;20194;-84
2023/04/26 02:12:18;;;;;;;3.63;1.83;;;12.10;94.70;;;;;;4871955;29;20205;-82
2023/04/26 02:14:48;;;;;;;2.97;1.60;;;12.10;94.80;;;;;;4873175;29;20667;-85
2023/04/26 02:17:16;;;;;;;2.37;1.70;;;12.10;94.70;;;;;;4870056;29;20224;-82
2023/04/26 02:19:45;;;;;;;6.27;2.23;;;12.10;94.70;;;;;;4872137;29;20190;-83
2023/04/26 02:22:13;;;;;;;6.30;2.20;;;12.00;94.70;;;;;;4876819;29;20221;-82
2023/04/26 02:24:42;;;;;;;2.33;2.10;;;12.10;94.70;;;;;;4870955;29;20205;-81
2023/04/26 02:27:10;;;;;;;2.80;1.67;;;12.00;94.70;;;;;;4871520;29;20205;-82
2023/04/26 02:29:39;;;;;;;5.73;2.40;;;12.10;94.60;;;;;;4871324;29;20208;-82
2023/04/26 02:32:13;;;;;;;7.10;2.73;;;12.00;94.70;;;;;;4874865;29;20189;-82
2023/04/26 02:34:42;;;;;;;2.73;1.40;;;12.00;94.60;;;;;;4870327;29;22318;-83
2023/04/26 02:37:11;;;;;;;1.50;1.10;;;12.00;94.50;;;;;;4874153;29;20229;-82
2023/04/26 02:39:39;;;;;;;3.90;2.13;;;12.00;94.60;;;;;;4870998;29;20574;-82
2023/04/26 02:42:09;;;;;;;11.30;2.33;;;12.00;94.60;;;;;;4870665;29;20232;-82
2023/04/26 02:44:38;;;;;;;2.90;2.17;;;12.00;94.60;;;;;;4877372;29;20209;-82
2023/04/26 02:47:07;;;;;;;1.30;1.13;;;12.00;94.60;;;;;;4872553;29;20200;-83
2023/04/26 02:49:37;;;;;;;5.77;2.60;;;12.00;94.60;;;;;;4873259;29;20201;-82
2023/04/26 02:52:06;;;;;;;2.00;1.80;;;11.90;94.50;;;;;;4869731;29;20201;-82
2023/04/26 02:54:34;;;;;;;2.80;2.27;;;11.90;94.60;;;;;;4878473;29;21150;-82
2023/04/26 02:57:02;;;;;;;5.50;3.13;;;11.90;94.60;;;;;;4876206;29;20202;-83
2023/04/26 02:59:31;;;;;;;1.73;1.50;;;11.80;94.60;;;;;;4875914;29;20197;-81
2023/04/26 03:01:59;;;;;;;5.07;1.20;;;11.90;94.60;;;;;;4874850;29;20197;-85
2023/04/26 03:04:29;;;;;;;1.73;1.23;;;11.90;94.60;;;;;;4873758;29;20224;-82
2023/04/26 03:06:58;;;;;;;2.57;1.93;;;11.90;94.60;;;;;;4872038;29;20196;-82
2023/04/26 03:09:27;;;;;;;2.20;1.37;;;11.80;94.70;;;;;;4873967;29;20655;-87
2023/04/26 03:11:55;;;;;;;5.43;2.23;;;11.80;94.60;;;;;;4874511;29;20635;-83
2023/04/26 03:14:24;;;;;;;3.27;1.90;;;11.80;94.70;;;;;;4870197;29;20198;-81
2023/04/26 03:16:52;;;;;;;10.00;1.63;;;11.80;94.70;;;;;;4872410;29;20287;-79
2023/04/26 03:19:20;;;;;;;3.30;2.00;;;11.70;94.80;;;;;;4875004;29;20248;-82
2023/04/26 03:21:49;;;;;;;2.83;1.90;;;11.70;94.80;;;;;;4875926;29;20714;-84
2023/04/26 03:24:18;;;;;;;2.33;2.07;;;11.70;94.90;;;;;;4871750;29;20638;-83
2023/04/26 03:26:47;;;;;;;4.23;2.07;;;11.70;95.00;;;;;;4870106;29;20205;-82
2023/04/26 03:29:16;;;;;;;3.73;2.50;;;11.70;95.00;;;;;;4875781;29;20659;-85
2023/04/26 03:31:44;;;;;;;3.30;2.70;;;11.70;95.10;;;;;;4872293;29;20197;-81
2023/04/26 03:34:13;;;;;;;4.53;2.33;;;11.60;95.10;;;;;;4874796;29;20200;-79
2023/04/26 03:36:41;;;;;;;2.67;2.33;;;11.60;95.10;;;;;;4868543;29;20221;-81
2023/04/26 03:39:10;;;;;;;3.43;2.63;;;11.60;95.20;;;;;;4873700;29;20208;-83
2023/04/26 03:41:40;;;;;;;2.43;1.77;;;11.60;95.20;;;;;;4872888;29;20669;-83
2023/04/26 03:44:08;;;;;;;3.73;1.83;;;11.50;95.30;;;;;;4861562;29;20225;-82
2023/04/26 03:46:37;;;;;;;5.30;2.60;;;11.50;95.30;;;;;;4868626;29;20201;-83
2023/04/26 03:49:05;;;;;;;4.87;2.67;;;11.60;95.20;;;;;;4871092;29;20205;-84
2023/04/26 03:51:33;;;;;;;3.00;1.67;;;11.50;95.30;;;;;;4869394;29;20201;-83
2023/04/26 03:54:02;;;;;;;3.30;2.07;;;11.60;95.20;;;;;;4871794;29;20212;-83
2023/04/26 03:56:31;;;;;;;2.40;2.20;;;11.60;95.10;;;;;;4872900;29;20573;-80
2023/04/26 03:59:00;;;;;;;2.63;1.90;;;11.60;95.20;;;;;;4876316;29;20197;-81
2023/04/26 04:01:29;;;;;;;4.37;2.93;;;11.50;95.20;;;;;;4875270;29;20201;-82
2023/04/26 04:03:57;;;;;;;5.03;3.27;;;11.50;95.20;;;;;;4868954;29;20273;-85
2023/04/26 04:06:26;;;;;;;4.10;2.53;;;11.50;95.30;;;;;;4870951;29;20205;-84
2023/04/26 04:08:55;;;;;;;3.77;2.90;;;11.50;95.30;;;;;;4868067;29;20230;-81
2023/04/26 04:11:23;;;;;;;3.80;2.23;;;11.40;95.40;;;;;;4868972;29;20204;-80
2023/04/26 04:13:52;;;;;;;3.90;2.40;;;11.50;95.40;;;;;;4867429;29;22702;-82
2023/04/26 04:16:22;;;;;;;3.53;2.07;;;11.50;95.40;;;;;;4871422;29;20212;-81
2023/04/26 04:18:50;;;;;;;2.60;1.97;;;11.60;95.40;;;;;;4868602;29;20197;-82
2023/04/26 04:21:19;;;;;;;4.77;2.97;;;11.60;95.30;;;;;;4864820;29;20304;-79
2023/04/26 04:23:48;;;;;;;7.20;3.83;;;11.60;95.30;;;;;;4880776;29;20228;-82
2023/04/26 04:26:17;;;;;;;4.13;2.70;;;11.60;95.40;;;;;;4882091;29;20201;-81
2023/04/26 04:28:47;;;;;;;3.43;2.27;;;11.70;95.40;;;;;;4876670;29;20234;-81
2023/04/26 04:31:16;;;;;;;5.47;3.53;;;11.70;95.30;;;;;;4865572;29;20209;-83
2023/04/26 04:33:46;;;;;;;4.47;2.27;;;11.80;95.30;;;;;;4870853;29;20197;-82
2023/04/26 04:36:16;;;;;;;2.37;1.27;;;11.70;95.30;;;;;;4865406;29;20225;-80
2023/04/26 04:38:45;;;;;;;2.63;2.10;;;11.80;95.30;;;;;;4872892;29;20303;-82
2023/04/26 04:41:13;;;;;;;4.85;2.53;;;11.80;95.30;;;;;;4867305;29;20491;-82
2023/04/26 04:43:41;;;;;;;4.10;2.70;;;11.80;95.30;;;;;;4871077;29;20221;-82
2023/04/26 04:46:10;;;;;;;3.37;1.67;;;11.90;95.30;;;;;;4867382;29;20209;-82
2023/04/26 04:48:40;;;;;;;4.17;1.53;;;11.90;95.20;;;;;;4864641;29;20209;-81
2023/04/26 04:51:10;;;;;;;4.13;2.60;;;12.00;95.20;;;;;;4870210;29;20216;-82
2023/04/26 04:53:39;;;;;;;2.47;1.67;;;12.00;95.10;;;;;;4867506;29;20201;-80
2023/04/26 04:56:07;;;;;;;2.43;2.17;;;12.00;95.10;;;;;;4870277;29;20202;-82
2023/04/26 04:58:36;;;;;;;5.07;2.97;;;12.00;95.20;;;;;;4870662;29;20639;-83
2023/04/26 05:01:05;;;;;;;3.00;2.40;;;12.00;95.20;;;;;;4869297;29;20204;-81
2023/04/26 05:03:33;;;;;;;5.57;2.50;;;12.00;95.30;;;;;;4870638;29;20235;-84
2023/04/26 05:06:02;;;;;;;2.10;1.70;;;12.00;95.40;;;;;;4868433;29;20196;-80
2023/04/26 05:08:32;;;;;;;2.03;1.87;;;12.00;95.40;;;;;;4872822;29;20211;-82
2023/04/26 05:11:01;;;;;;;3.67;1.77;;;12.00;95.40;;;;;;4871983;29;20205;-83
2023/04/26 05:13:30;;;;;;;2.40;1.73;;;12.00;95.50;;;;;;4874848;29;20293;-84
2023/04/26 05:15:58;;;;;;;3.60;2.17;;;12.10;95.60;;;;;;4869709;29;20209;-83
2023/04/26 05:18:27;;;;;;;2.00;1.80;;;12.20;95.60;;;;;;4819535;29;20205;-81
2023/04/26 05:20:55;;;;;;;3.60;2.33;;;12.20;95.60;;;;;;4866435;29;20197;-81
2023/04/26 05:23:23;;;;;;;2.33;1.93;;;12.30;95.50;;;;;;4866297;29;20204;-81
2023/04/26 05:25:53;;;;;;;4.37;2.60;;;12.40;95.60;;;;;;4868003;29;20209;-82
2023/04/26 05:28:22;;;;;;;3.83;2.57;;;12.40;95.50;;;;;;4866425;29;20674;-79
2023/04/26 05:30:50;;;;;;;3.57;2.43;;;12.50;95.40;;;;;;4873770;29;20200;-78
2023/04/26 05:33:18;;;;;;;2.50;1.60;;;12.60;95.20;;;;;;4858899;29;20726;-79
2023/04/26 05:35:47;;;;;;;13.40;2.77;;;12.60;95.10;;;;;;4873375;29;20224;-79
2023/04/26 05:38:16;;;;;;;3.20;1.70;;;12.70;95.10;;;;;;4886614;29;20201;-79
2023/04/26 05:40:44;;;;;;;3.20;2.53;;;12.80;95.10;;;;;;4896083;29;20245;-78
2023/04/26 05:43:14;;;;;;;4.40;1.83;;;12.80;94.90;;;;;;4891360;29;20196;-76
2023/04/26 05:45:51;;;;;;;2.17;1.57;;;12.90;94.80;;;;;;4892059;29;20308;-79
2023/04/26 05:48:21;;;;;;;3.27;2.10;;;13.00;94.80;;;;;;4889312;29;20232;-82
2023/04/26 05:50:49;;;;;;;2.57;1.60;;;13.00;94.60;;;;;;4882638;29;20212;-80
2023/04/26 05:53:19;;;;;;;2.23;1.60;;;13.10;94.60;;;;;;4889402;29;20208;-80
2023/04/26 05:55:47;;;;;;;5.00;1.97;;;13.20;94.60;;;;;;4888958;29;20210;-82
2023/04/26 05:58:17;;;;;;;2.57;1.97;;;13.40;94.60;;;;;;4890775;29;20374;-83
2023/04/26 06:00:46;;;;;;;2.53;1.87;;;13.40;94.50;;;;;;4888122;29;20697;-80
2023/04/26 06:03:15;;;;;;;3.77;1.87;;;13.50;94.40;;;;;;4887718;29;20547;-79
2023/04/26 06:05:44;;;;;;;2.33;1.67;;;13.60;94.30;;;;;;4889780;29;20276;-79
2023/04/26 06:08:12;;;;;;;2.87;1.50;;;13.70;94.10;;;;;;4879573;29;20316;-81
2023/04/26 06:10:41;;;;;;;4.47;2.23;;;13.70;93.90;;;;;;4882751;29;20197;-80
2023/04/26 06:13:10;;;;;;;2.27;1.73;;;13.80;93.50;;;;;;4874018;29;20344;-81
2023/04/26 06:15:40;;;;;;;2.50;1.53;;;13.90;93.50;;;;;;4882394;29;20662;-79
2023/04/26 06:18:09;;;;;;;1.67;1.47;;;13.90;93.40;;;;;;4879529;29;20236;-81
2023/04/26 06:20:37;;;;;;;1.93;1.20;;;14.00;93.30;;;;;;4882909;29;20208;-82
2023/04/26 06:23:06;;;;;;;1.80;1.47;;;14.10;93.40;;;;;;4888725;29;20662;-81
2023/04/26 06:25:43;;;;;;;2.23;1.63;;;14.20;93.30;;;;;;4883051;29;20716;-81
2023/04/26 06:28:12;;;;;;;1.80;1.23;;;14.30;93.10;;;;;;4879154;29;20510;-79
2023/04/26 06:30:42;;;;;;;5.03;1.67;;;14.40;92.90;;;;;;4887836;29;20208;-81
2023/04/26 06:33:11;;;;;;;1.43;1.33;;;14.50;92.90;;;;;;4887465;29;20204;-79
2023/04/26 06:35:54;;;;;;;1.93;1.63;;;14.60;92.80;;;;;;4885674;29;20340;-79
2023/04/26 06:38:23;;;;;;;1.93;1.50;;;14.70;92.20;;;;;;4887857;29;20204;-80
2023/04/26 06:40:51;;;;;;;4.20;2.10;;;14.70;91.90;;;;;;4889609;29;20349;-80
2023/04/26 06:43:20;;;;;;;2.57;1.47;;;14.80;92.00;;;;;;4889100;29;20205;-81
2023/04/26 06:45:50;;;;;;;1.87;1.37;;;14.90;92.00;;;;;;4889580;29;20529;-79
2023/04/26 06:48:28;;;;;;;2.97;1.53;;;15.00;91.90;;;;;;4887076;29;20247;-83
2023/04/26 06:50:57;;;;;;;1.77;0.97;;;15.00;91.50;;;;;;4890379;29;20204;-82
2023/04/26 06:53:25;;;;;;;2.17;1.57;;;15.10;91.30;;;;;;4890408;29;20213;-81
2023/04/26 06:55:56;;;;;;;1.63;1.10;;;15.10;91.20;;;;;;4885732;29;20208;-78
2023/04/26 06:58:32;;;;;;;1.30;0.93;;;15.20;91.20;;;;;;4888689;29;20208;-77
2023/04/26 07:01:02;;;;;;;1.53;1.00;;;15.20;91.00;;;;;;4890574;29;20204;-79
2023/04/26 07:03:31;;;;;;;2.60;1.57;;;15.30;90.50;;;;;;4891880;29;20200;-77
2023/04/26 07:06:00;;;;;;;3.30;1.43;;;15.40;90.90;;;;;;4885255;29;20236;-76
2023/04/26 07:08:38;;;;;;;1.70;1.13;;;15.30;90.80;;;;;;4886658;29;20677;-80
2023/04/26 07:11:10;;;;;;;2.40;1.50;;;15.40;90.60;;;;;;4886987;29;20209;-81
2023/04/26 07:13:38;;;;;;;2.37;1.37;;;15.40;90.90;;;;;;4883461;29;20227;-79
2023/04/26 07:16:08;;;;;;;3.67;1.30;;;15.50;90.90;;;;;;4885401;29;20196;-78
2023/04/26 07:18:51;;;;;;;1.40;1.00;;;15.50;90.80;;;;;;4885881;29;20208;-77
2023/04/26 07:21:20;;;;;;;1.30;1.00;;;15.60;90.90;;;;;;4883697;29;20655;-77
2023/04/26 07:23:48;;;;;;;2.23;1.20;;;15.70;90.80;;;;;;4891519;29;20548;-79
2023/04/26 07:26:17;;;;;;;1.97;0.90;;;15.70;90.10;;;;;;4889796;29;20217;-79
2023/04/26 07:28:45;;;;;;;2.30;1.57;;;15.80;90.20;;;;;;4885166;29;20205;-78
2023/04/26 07:31:15;;;;;;;1.87;1.33;;;15.80;90.60;;;;;;4887002;29;20196;-76
2023/04/26 07:33:43;;;;;;;2.33;1.13;;;15.90;90.60;;;;;;4890294;29;20616;-78
2023/04/26 07:36:12;;;;;;;2.50;1.47;;;15.90;90.10;;;;;;4886234;29;20250;-79
2023/04/26 07:38:41;;;;;;;1.87;1.27;;;16.00;90.20;;;;;;4893496;29;20197;-77
2023/04/26 07:41:11;;;;;;;1.30;1.10;;;16.00;90.30;;;;;;4888203;29;20615;-79
2023/04/26 07:43:40;;;;;;;1.17;0.80;;;16.10;90.10;;;;;;4890748;29;20208;-83
2023/04/26 07:46:08;;;;;;;1.47;1.03;;;16.10;89.80;;;;;;4884574;29;20221;-78
2023/04/26 07:48:38;;;;;;;2.90;1.17;;;16.20;90.00;;;;;;4889640;29;20232;-76
2023/04/26 07:51:11;;;;;;;0.97;0.70;;;16.30;89.10;;;;;;4885354;29;20197;-77
2023/04/26 07:53:40;;;;;;;1.40;0.60;;;16.40;88.50;;;;;;4885112;29;20562;-76
2023/04/26 07:56:09;;;;;;;1.37;0.80;;;16.40;88.40;;;;;;4888577;29;20574;-75
2023/04/26 07:58:38;;;;;;;1.73;1.27;;;16.50;88.90;;;;;;4887436;29;20208;-80
2023/04/26 08:01:08;;;;;;;2.47;1.13;;;16.50;89.40;;;;;;4887770;29;20197;-79
2023/04/26 08:03:38;;;;;;;2.00;1.00;;;16.60;90.10;;;;;;4881411;29;20203;-76
2023/04/26 08:06:07;;;;;;;1.47;1.03;;;16.70;88.70;;;;;;4882251;29;20212;-81
2023/04/26 08:08:41;;;;;;;1.60;1.37;;;16.70;87.10;;;;;;4886990;29;20197;-78
2023/04/26 08:11:10;;;;;;;1.50;1.00;;;16.70;87.70;;;;;;4889722;29;20203;-78
2023/04/26 08:13:39;;;;;;;1.43;0.80;;;16.90;88.00;;;;;;4882741;29;20204;-79
2023/04/26 08:16:07;;;;;;;1.63;1.20;;;16.90;86.40;;;;;;4889632;29;20201;-78
2023/04/26 08:18:36;;;;;;;11.90;1.07;;;16.90;85.90;;;;;;4888051;29;20840;-81
2023/04/26 08:21:06;;;;;;;1.10;1.00;;;17.00;86.80;;;;;;4889260;29;20249;-78
2023/04/26 08:23:36;;;;;;;0.53;0.53;;;17.00;85.70;;;;;;4889961;29;20269;-78
2023/04/26 08:26:05;;;;;;;0.70;0.60;;;17.10;84.10;;;;;;4889638;29;20241;-80
2023/04/26 08:28:34;;;;;;;1.53;0.70;;;17.20;83.50;;;;;;4890873;29;20299;-76
2023/04/26 08:31:03;;;;;;;0.50;0.50;;;17.30;83.80;;;;;;4887520;29;20259;-77
2023/04/26 08:33:31;;;;;;;0.93;0.60;;;17.30;82.60;;;;;;4887018;29;20236;-80
2023/04/26 08:36:01;;;;;;;0.40;0.40;;;17.40;82.70;;;;;;4877569;29;20220;-77
2023/04/26 08:38:43;;;;;;;1.43;0.80;;;17.40;81.30;;;;;;4878939;29;20204;-84
2023/04/26 08:41:15;;;;;;;0.43;0.43;;;17.50;82.10;;;;;;4878925;29;20292;-78
2023/04/26 08:43:44;;;;;;;0.80;0.57;;;17.60;81.00;;;;;;4882319;29;20208;-77
2023/04/26 08:46:18;;;;;;;0.60;0.50;;;17.70;81.70;;;;;;4886499;29;20216;-82
2023/04/26 08:48:51;;;;;;;0.70;0.70;;;17.80;81.00;;;;;;4890944;29;20191;-80
2023/04/26 08:51:21;;;;;;;0.77;0.70;;;17.90;81.00;;;;;;4883578;29;20196;-80
2023/04/26 08:53:53;;;;;;;0.43;0.33;;;17.90;78.60;;;;;;4886823;29;20679;-81
2023/04/26 08:56:24;;;;;;;1.27;0.87;;;18.00;79.90;;;;;;4892280;29;20196;-81
2023/04/26 08:58:55;;;;;;;0.50;0.50;;;18.20;80.60;;;;;;4888273;29;20197;-80
2023/04/26 09:01:25;;;;;;;1.93;0.57;;;18.20;79.40;;;;;;4887995;29;20629;-77
2023/04/26 09:03:55;;;;;;;0.60;0.40;;;18.30;78.60;;;;;;4884193;29;20284;-88
2023/04/26 09:06:27;;;;;;;1.17;0.90;;;18.30;78.40;;;;;;4879950;29;20220;-84
2023/04/26 09:12:10;;;;;;;1.73;0.60;;;18.50;78.00;;;;;;4879317;29;20774;-82
2023/04/26 09:14:39;;;;;;;0.80;0.57;;;18.50;77.70;;;;;;4890841;29;20470;-78
2023/04/26 09:17:25;;;;;;;1.03;0.70;;;18.60;77.60;;;;;;4889881;29;20199;-80
2023/04/26 09:19:54;;;;;;;0.80;0.40;;;18.80;78.80;;;;;;4891306;29;20239;-83
2023/04/26 09:22:33;;;;;;;0.77;0.63;;;18.80;76.70;;;;;;4890621;29;20218;-77
2023/04/26 09:25:06;;;;;;;0.77;0.77;;;18.80;77.10;;;;;;4892293;29;20566;-81
2023/04/26 09:27:36;;;;;;;6.80;0.87;;;18.90;76.90;;;;;;4884637;29;20212;-84
2023/04/26 09:30:08;;;;;;;0.77;0.60;;;18.90;76.20;;;;;;4883019;29;20742;-83
2023/04/26 09:32:47;;;;;;;1.23;0.93;;;18.80;75.50;;;;;;4884036;29;20216;-82
2023/04/26 09:35:23;;;;;;;0.40;0.40;;;18.80;75.50;;;;;;4883736;29;20224;-78
2023/04/26 09:37:57;;;;;;;0.30;0.30;;;18.90;75.60;;;;;;4890166;29;20206;-76
2023/04/26 09:40:36;;;;;;;1.03;0.70;;;19.00;76.30;;;;;;4886568;29;20721;-77
2023/04/26 09:43:06;;;;;;;0.40;0.40;;;19.30;76.90;;;;;;4887030;29;20284;-82
2023/04/26 09:45:45;;;;;;;0.40;0.40;;;19.20;75.60;;;;;;4885642;29;20336;-79
2023/04/26 09:48:15;;;;;;;0.50;0.50;;;19.30;75.40;;;;;;4886368;29;20196;-83
2023/04/26 09:50:45;;;;;;;2.00;0.80;;;19.30;75.10;;;;;;4888364;29;20291;-79
2023/04/26 09:53:35;;;;;;;0.60;0.50;;;19.30;74.50;;;;;;4877943;29;20203;-81
2023/04/26 09:56:10;;;;;;;0.45;0.40;;;19.40;74.70;;;;;;4892762;29;20208;-79
2023/04/26 09:58:57;;;;;;;1.00;0.60;;;19.50;75.20;;;;;;4888505;29;20291;-80
2023/04/26 10:01:28;;;;;;;0.93;0.67;;;19.60;75.30;;;;;;4890022;29;20287;-79
2023/04/26 10:03:57;;;;;;;0.38;0.30;;;19.60;74.40;;;;;;4882837;29;20660;-84
2023/04/26 10:06:51;;;;;;;0.63;0.63;;;19.70;74.20;;;;;;4891674;29;20314;-78
2023/04/26 10:09:19;;;;;;;0.93;0.65;;;19.90;74.10;;;;;;4894830;29;20203;-77
2023/04/26 10:11:49;;;;;;;0.88;0.50;;;19.90;73.60;;;;;;4890122;29;20201;-79
2023/04/26 10:14:18;;;;;;;0.70;0.68;;;20.10;74.90;;;;;;4891969;29;20200;-81
2023/04/26 10:16:47;;;;;;;0.47;0.40;;;20.20;72.70;;;;;;4895153;29;20193;-77
2023/04/26 10:19:15;;;;;;;1.58;1.00;;;20.20;72.40;;;;;;4892426;29;20568;-78
2023/04/26 10:21:48;;;;;;;0.40;0.40;;;20.30;72.20;;;;;;4897810;29;20719;-77
2023/04/26 10:24:27;;;;;;;0.60;0.60;;;20.30;72.50;;;;;;4894820;29;20279;-76
2023/04/26 10:27:59;;;;;;;1.48;0.50;;;20.30;71.90;;;;;;4884306;29;20212;-78
2023/04/26 10:30:29;;;;;;;0.73;0.55;;;20.20;71.40;;;;;;5214692;23;20234;-78
2023/04/26 10:33:20;;;;;;;0.55;0.40;;;20.40;72.50;;;;;;4920566;29;20581;-78
2023/04/26 10:36:09;;;;;;;0.85;0.60;;;20.40;72.60;;;;;;4921230;29;20200;-78
2023/04/26 10:38:42;;;;;;;0.75;0.63;;;20.40;72.50;;;;;;4928899;29;20195;-78
2023/04/26 10:41:37;;;;;;;1.08;0.55;;;20.40;72.40;;;;;;4923527;29;20708;-78
2023/04/26 10:44:37;;;;;;;1.00;0.60;;;20.40;71.80;;;;;;4925050;29;20218;-77
2023/04/26 10:47:20;;;;;;;0.40;0.40;;;20.40;71.50;;;;;;4927292;29;20706;-78
2023/04/26 10:49:50;;;;;;;3.15;1.10;;;20.50;72.00;;;;;;4923922;29;20282;-78
2023/04/26 10:52:21;;;;;;;1.17;0.98;;;20.50;71.40;;;;;;4938557;29;20333;-79
2023/04/26 10:54:55;;;;;;;1.92;0.50;;;20.50;71.80;;;;;;4925281;29;20245;-78
2023/04/26 10:57:40;;;;;;;7.70;1.23;;;20.60;71.60;;;;;;4925217;29;20916;-78
2023/04/26 11:00:32;;;;;;;0.60;0.50;;;20.60;71.00;;;;;;4920187;29;20203;-81
2023/04/26 11:03:07;;;;;;;0.50;0.50;;;20.60;71.00;;;;;;4917174;29;20199;-77
2023/04/26 11:05:52;;;;;;;15.20;1.08;;;20.60;70.00;;;;;;4927844;29;20199;-78
2023/04/26 11:08:25;;;;;;;1.15;0.55;;;20.60;71.00;;;;;;4926658;29;20223;-79
2023/04/26 11:10:59;;;;;;;0.50;0.50;;;20.60;71.20;;;;;;4921603;29;20199;-76
2023/04/26 11:13:27;;;;;;;1.35;0.60;;;20.60;71.40;;;;;;4925357;29;20201;-76
2023/04/26 11:16:02;;;;;;;0.85;0.60;;;20.80;72.30;;;;;;4914187;29;20344;-78
2023/04/26 11:18:33;;;;;;;0.75;0.60;;;20.80;70.10;;;;;;4918269;29;20203;-75
2023/04/26 11:21:02;;;;;;;0.90;0.63;;;20.90;70.00;;;;;;4917036;29;20586;-76
2023/04/26 11:23:31;;;;;;;0.82;0.52;;;20.90;69.20;;;;;;4902890;29;20199;-76
2023/04/26 11:26:01;;;;;;;0.80;0.57;;;20.90;69.30;;;;;;4851740;29;20707;-77
2023/04/26 11:28:38;;;;;;;0.75;0.50;;;21.00;70.00;;;;;;4932685;29;20797;-78
2023/04/26 11:31:08;;;;;;;0.75;0.57;;;21.10;69.40;;;;;;4925629;29;20235;-78
2023/04/26 11:33:38;;;;;;;6.55;0.70;;;21.10;68.00;;;;;;4929103;29;20678;-79
2023/04/26 11:36:07;;;;;;;0.75;0.52;;;21.10;69.10;;;;;;4923907;29;20199;-78
2023/04/26 11:38:35;;;;;;;0.52;0.50;;;21.20;69.50;;;;;;4933189;29;20564;-80
2023/04/26 11:41:04;;;;;;;0.60;0.50;;;21.20;67.20;;;;;;4926317;29;20203;-77
2023/04/26 11:43:36;;;;;;;0.93;0.52;;;21.20;67.50;;;;;;4932588;29;20200;-78
2023/04/26 11:46:06;;;;;;;2.00;0.90;;;21.30;66.70;;;;;;4927115;29;20211;-76
2023/04/26 11:48:37;;;;;;;0.57;0.57;;;21.30;67.60;;;;;;4918143;29;20235;-80
2023/04/26 11:51:08;;;;;;;2.00;0.65;;;21.40;66.50;;;;;;4925778;29;20199;-76
2023/04/26 11:53:44;;;;;;;0.70;0.70;;;21.40;67.50;;;;;;4921702;29;20595;-80
2023/04/26 11:56:25;;;;;;;0.68;0.65;;;21.50;67.90;;;;;;4917436;29;20585;-79
2023/04/26 11:58:54;;;;;;;1.10;0.70;;;21.50;66.10;;;;;;4929009;29;20258;-76
2023/04/26 12:01:24;;;;;;;2.13;0.60;;;21.60;67.50;;;;;;4927972;29;20199;-75
2023/04/26 12:03:56;;;;;;;1.08;0.85;;;21.70;66.50;;;;;;4919218;29;20265;-77
2023/04/26 12:06:31;;;;;;;1.27;0.98;;;21.80;64.80;;;;;;4923707;29;20207;-76
2023/04/26 12:09:04;;;;;;;0.85;0.60;;;21.80;65.50;;;;;;4925229;29;20704;-77
2023/04/26 12:11:33;;;;;;;1.85;0.75;;;21.80;66.20;;;;;;4928927;29;20234;-79
2023/04/26 12:14:02;;;;;;;1.15;0.70;;;21.70;64.70;;;;;;4927821;29;20242;-79
2023/04/26 12:16:30;;;;;;;0.95;0.50;;;21.60;65.10;;;;;;4932124;29;20230;-79
2023/04/26 12:19:04;;;;;;;1.67;0.70;;;21.70;65.80;;;;;;4939067;29;20193;-79
2023/04/26 12:21:41;;;;;;;1.45;0.88;;;21.60;65.00;;;;;;4928321;29;20202;-79
2023/04/26 12:24:24;;;;;;;0.85;0.55;;;21.70;64.60;;;;;;4919179;29;20196;-78
2023/04/26 12:26:52;;;;;;;1.05;0.50;;;21.70;64.00;;;;;;4924450;29;20191;-80
2023/04/26 12:29:22;;;;;;;0.68;0.60;;;21.80;64.50;;;;;;4927542;29;20199;-79
2023/04/26 12:31:50;;;;;;;1.45;0.60;;;21.80;64.00;;;;;;4922586;29;20282;-78
2023/04/26 12:34:20;;;;;;;0.63;0.50;;;22.00;64.20;;;;;;4926514;29;20290;-78
2023/04/26 12:36:48;;;;;;;0.60;0.57;;;22.00;63.30;;;;;;4926521;29;20199;-78
2023/04/26 12:39:17;;;;;;;1.85;0.93;;;22.10;63.30;;;;;;4933664;29;20199;-80
2023/04/26 12:41:46;;;;;;;1.35;0.73;;;22.20;63.40;;;;;;4927304;29;20195;-79
2023/04/26 12:44:14;;;;;;;0.90;0.60;;;22.30;63.60;;;;;;4929596;29;20196;-78
2023/04/26 12:46:43;;;;;;;0.50;0.40;;;22.30;63.70;;;;;;4933234;29;20234;-78
2023/04/26 12:49:11;;;;;;;0.30;0.30;;;22.10;63.50;;;;;;4931741;29;20226;-79
2023/04/26 12:51:41;;;;;;;0.82;0.70;;;22.00;63.60;;;;;;4928036;29;20226;-78
2023/04/26 12:54:09;;;;;;;1.17;0.75;;;21.90;63.90;;;;;;4929689;29;20251;-79
2023/04/26 12:56:42;;;;;;;3.25;0.40;;;21.70;64.40;;;;;;4939757;29;20225;-77
2023/04/26 12:59:11;;;;;;;0.40;0.40;;;21.60;64.90;;;;;;4931152;29;20656;-77
2023/04/26 13:01:39;;;;;;;1.02;0.52;;;21.50;65.90;;;;;;4931972;29;20195;-78
2023/04/26 13:04:08;;;;;;;3.40;0.60;;;21.30;66.10;;;;;;4939125;29;20217;-79
2023/04/26 13:06:37;;;;;;;0.30;0.30;;;21.10;66.90;;;;;;4935059;29;20273;-80